Springdale, Pennsylvania
Current Conditions -  °F | °C
As of 1:53 AM on Saturday 20 Dec 2014 (Local Time) from KAGC Reporting Station
Overcast Overcast  
Wind Chill: 28°   Ceiling: 2500
Heat Index: 28°   Visibility: 10mi
Dew Point: 17°   Wind: 0mph
Humidity: 63%   Direction: NA
Pressure: 30.23"   Gusts: NA
Location:  40.54°N, 79.78°W
Report Text: KAGC 200653Z 00000KT 10SM OVC025 M02/M08 A3023 RMK AO2 SLP256 T10221083
Loading
Personal Weather Stations






























Interactive Weather Map New forecast layout! Learn more

10-Day Weather Forecast

Advertisements
Track Severe Weather on mobile